createdAt,value
2022-08-14T00:00:16.762Z,0.00
2022-08-14T00:01:16.784Z,0.00
2022-08-14T00:02:16.807Z,0.00
2022-08-14T00:03:16.719Z,0.00
2022-08-14T00:04:35.703Z,0.00
2022-08-14T00:05:16.679Z,0.00
2022-08-14T00:06:27.742Z,0.00
2022-08-14T00:07:16.645Z,0.00
2022-08-14T00:08:16.634Z,0.00
2022-08-14T00:09:16.610Z,0.00
2022-08-14T00:10:50.072Z,0.00
2022-08-14T00:11:17.038Z,0.00
2022-08-14T00:12:24.346Z,0.00
2022-08-14T00:13:16.545Z,0.00
2022-08-14T00:14:17.204Z,0.00
2022-08-14T00:15:16.509Z,0.00
2022-08-14T00:16:40.974Z,0.00
2022-08-14T00:17:16.479Z,0.00
2022-08-14T00:18:30.891Z,0.00
2022-08-14T00:19:21.232Z,0.00
2022-08-14T00:20:23.533Z,0.00
2022-08-14T00:21:16.408Z,0.00
2022-08-14T00:22:44.455Z,0.00
2022-08-14T00:23:17.776Z,0.00
2022-08-14T00:24:28.384Z,0.00
2022-08-14T00:25:16.340Z,0.00
2022-08-14T00:26:21.999Z,0.00
2022-08-14T00:27:16.305Z,0.00
2022-08-14T00:28:17.747Z,0.00
2022-08-14T00:29:16.270Z,0.00
2022-08-14T00:30:17.328Z,0.00
2022-08-14T00:31:16.237Z,0.00
2022-08-14T00:32:56.367Z,0.00
2022-08-14T00:33:16.868Z,0.00
2022-08-14T00:34:36.754Z,0.00
2022-08-14T00:35:16.169Z,0.00
2022-08-14T00:36:37.490Z,0.00
2022-08-14T00:37:16.130Z,0.00
2022-08-14T00:38:16.131Z,0.00
2022-08-14T00:39:18.133Z,0.00
2022-08-14T00:40:27.379Z,0.00
2022-08-14T00:41:16.065Z,0.00
2022-08-14T00:42:52.692Z,0.00
2022-08-14T00:43:16.033Z,0.00
2022-08-14T00:44:21.452Z,0.00
2022-08-14T00:45:15.997Z,0.00
2022-08-14T00:46:32.176Z,0.00
2022-08-14T00:47:15.966Z,0.00
2022-08-14T00:48:15.963Z,0.00
2022-08-14T00:49:15.930Z,0.00
2022-08-14T00:50:17.757Z,0.00
2022-08-14T00:51:15.893Z,0.00
2022-08-14T00:52:18.079Z,0.00
2022-08-14T00:53:15.860Z,0.00
2022-08-14T00:54:21.487Z,0.00
2022-08-14T00:55:15.822Z,0.00
2022-08-14T00:56:15.815Z,0.00
2022-08-14T00:57:15.793Z,0.00
2022-08-14T00:58:15.767Z,0.00
2022-08-14T00:59:16.151Z,0.00
2022-08-14T01:00:34.459Z,0.00
2022-08-14T01:01:17.044Z,0.00
2022-08-14T01:02:15.702Z,0.00
2022-08-14T01:03:15.692Z,0.00
2022-08-14T01:04:38.465Z,0.00
2022-08-14T01:05:15.669Z,0.00
2022-08-14T01:06:15.630Z,0.00
2022-08-14T01:07:15.632Z,0.00
2022-08-14T01:08:50.503Z,0.00
2022-08-14T01:09:15.590Z,0.00
2022-08-14T01:10:15.568Z,0.00
2022-08-14T01:11:15.542Z,0.00
2022-08-14T01:12:15.529Z,0.00
2022-08-14T01:13:15.504Z,0.00
2022-08-14T01:14:25.627Z,0.00
2022-08-14T01:15:15.471Z,0.00
2022-08-14T01:16:15.460Z,0.00
2022-08-14T01:17:15.438Z,0.00
2022-08-14T01:18:15.425Z,0.00
2022-08-14T01:19:15.399Z,0.00
2022-08-14T01:20:27.764Z,0.00
2022-08-14T01:21:15.368Z,0.00
2022-08-14T01:22:18.467Z,0.00
2022-08-14T01:23:16.379Z,0.00
2022-08-14T01:24:15.318Z,0.00
2022-08-14T01:25:15.299Z,0.00
2022-08-14T01:26:15.291Z,0.00
2022-08-14T01:27:15.268Z,0.00
2022-08-14T01:28:46.496Z,0.00
2022-08-14T01:29:16.151Z,0.00
2022-08-14T01:30:16.823Z,0.00
2022-08-14T01:31:15.191Z,0.00
2022-08-14T01:32:15.700Z,0.00
2022-08-14T01:33:15.159Z,0.00
2022-08-14T01:35:17.241Z,0.00
2022-08-14T01:35:20.041Z,0.00
2022-08-14T01:36:22.754Z,0.00
2022-08-14T01:37:16.475Z,0.00
2022-08-14T01:38:15.078Z,0.00
2022-08-14T01:39:15.056Z,0.00
2022-08-14T01:40:15.475Z,0.00
2022-08-14T01:41:15.183Z,0.00
2022-08-14T01:42:31.365Z,0.00
2022-08-14T01:43:15.014Z,0.00
2022-08-14T01:44:33.290Z,0.00
2022-08-14T01:45:17.980Z,0.00
2022-08-14T01:46:24.416Z,0.00
2022-08-14T01:47:21.407Z,0.00
2022-08-14T01:48:14.895Z,0.00
2022-08-14T01:49:14.885Z,0.00
2022-08-14T01:50:14.860Z,0.00
2022-08-14T01:51:18.355Z,0.00
2022-08-14T01:52:34.216Z,0.00
2022-08-14T01:53:14.809Z,0.00
2022-08-14T01:54:14.791Z,0.00
2022-08-14T01:55:14.775Z,0.00
2022-08-14T01:56:18.763Z,0.00
2022-08-14T01:57:14.737Z,0.00
2022-08-14T01:58:19.509Z,0.00
2022-08-14T01:59:18.485Z,0.00
2022-08-14T02:00:14.686Z,0.00
2022-08-14T02:01:14.680Z,0.00
2022-08-14T02:02:18.943Z,0.00
2022-08-14T02:03:14.783Z,0.00
2022-08-14T02:04:40.712Z,0.00
2022-08-14T02:05:14.593Z,0.00
2022-08-14T02:06:33.219Z,0.00
2022-08-14T02:07:15.481Z,0.00
2022-08-14T02:08:16.130Z,0.00
2022-08-14T02:09:19.077Z,0.00
2022-08-14T02:10:15.898Z,0.00
2022-08-14T02:11:14.489Z,0.00
2022-08-14T02:12:19.603Z,0.00
2022-08-14T02:13:14.454Z,0.00
2022-08-14T02:14:14.437Z,0.00
2022-08-14T02:15:15.287Z,0.00
2022-08-14T02:16:21.846Z,0.00
2022-08-14T02:17:14.384Z,0.00
2022-08-14T02:18:15.266Z,0.00
2022-08-14T02:19:14.347Z,0.00
2022-08-14T02:20:14.347Z,0.00
2022-08-14T02:21:14.308Z,0.00
2022-08-14T02:22:14.307Z,0.00
2022-08-14T02:23:14.271Z,0.00
2022-08-14T02:24:40.473Z,0.00
2022-08-14T02:25:14.238Z,0.00
2022-08-14T02:26:24.951Z,0.00
2022-08-14T02:28:22.028Z,0.00
2022-08-14T02:28:25.237Z,0.00
2022-08-14T02:29:14.167Z,0.00
2022-08-14T02:30:14.148Z,0.00
2022-08-14T02:31:14.987Z,0.00
2022-08-14T02:32:19.982Z,0.00
2022-08-14T02:33:14.242Z,0.00
2022-08-14T02:34:22.090Z,0.00
2022-08-14T02:35:14.063Z,0.00
2022-08-14T02:37:04.451Z,0.00
2022-08-14T02:37:14.015Z,0.00
2022-08-14T02:38:30.204Z,0.00
2022-08-14T02:39:13.978Z,0.00
2022-08-14T02:40:13.968Z,0.00
2022-08-14T02:41:13.942Z,0.00
2022-08-14T02:42:13.925Z,0.00
2022-08-14T02:43:13.903Z,0.00
2022-08-14T02:44:13.883Z,0.00
2022-08-14T02:45:13.870Z,0.00
2022-08-14T02:46:13.854Z,0.00
2022-08-14T02:47:15.154Z,0.00
2022-08-14T02:49:01.293Z,0.00
2022-08-14T02:49:13.792Z,0.00
2022-08-14T02:50:13.775Z,0.00
2022-08-14T02:51:13.753Z,0.00
2022-08-14T02:52:26.880Z,0.00
2022-08-14T02:53:13.774Z,0.00
2022-08-14T02:54:19.733Z,0.00
2022-08-14T02:55:19.658Z,0.00
2022-08-14T02:56:29.672Z,0.00
2022-08-14T02:57:39.273Z,0.00
2022-08-14T02:58:30.336Z,0.00
2022-08-14T02:59:13.617Z,0.00
2022-08-14T03:00:18.687Z,0.00
2022-08-14T03:01:13.601Z,0.00
2022-08-14T03:02:33.286Z,0.00
2022-08-14T03:03:13.538Z,0.00
2022-08-14T03:04:13.526Z,0.00
2022-08-14T03:05:13.506Z,0.00
2022-08-14T03:06:13.488Z,0.00
2022-08-14T03:07:13.488Z,0.00
2022-08-14T03:08:16.150Z,0.00
2022-08-14T03:09:13.432Z,0.00
2022-08-14T03:10:26.363Z,0.00
2022-08-14T03:11:13.401Z,0.00
2022-08-14T03:12:13.383Z,0.00
2022-08-14T03:13:19.449Z,0.00
2022-08-14T03:14:15.344Z,0.00
2022-08-14T03:15:14.251Z,0.00
2022-08-14T03:16:19.925Z,0.00
2022-08-14T03:17:13.295Z,0.00
2022-08-14T03:18:13.278Z,0.00
2022-08-14T03:19:13.359Z,0.00
2022-08-14T03:20:13.248Z,0.00
2022-08-14T03:21:13.228Z,0.00
2022-08-14T03:22:17.541Z,0.00
2022-08-14T03:23:13.189Z,0.00
2022-08-14T03:24:21.421Z,0.00
2022-08-14T03:25:13.152Z,0.00
2022-08-14T03:26:18.365Z,0.00
2022-08-14T03:27:13.121Z,0.00
2022-08-14T03:28:14.835Z,0.00
2022-08-14T03:29:14.031Z,0.00
2022-08-14T03:30:14.606Z,0.00
2022-08-14T03:31:13.594Z,0.00
2022-08-14T03:32:13.029Z,0.00
2022-08-14T03:33:13.082Z,0.00
2022-08-14T03:34:24.269Z,0.00
2022-08-14T03:35:12.971Z,0.00
2022-08-14T03:37:37.679Z,0.00
2022-08-14T03:37:39.107Z,0.00
2022-08-14T03:39:14.407Z,0.00
2022-08-14T03:39:21.974Z,0.00
2022-08-14T03:40:18.412Z,0.00
2022-08-14T03:41:12.864Z,0.00
2022-08-14T03:42:19.371Z,0.00
2022-08-14T03:43:12.826Z,0.00
2022-08-14T03:45:20.077Z,0.00
2022-08-14T03:45:25.876Z,0.00
2022-08-14T03:46:52.463Z,0.00
2022-08-14T03:47:15.248Z,0.00
2022-08-14T03:48:29.524Z,0.00
2022-08-14T03:49:12.798Z,0.00
2022-08-14T03:50:12.702Z,0.00
2022-08-14T03:51:12.683Z,0.00
2022-08-14T03:52:37.920Z,0.00
2022-08-14T03:53:12.646Z,0.00
2022-08-14T03:54:15.801Z,0.00
2022-08-14T03:55:12.607Z,0.00
2022-08-14T03:56:12.590Z,0.00
2022-08-14T03:57:12.574Z,0.00
2022-08-14T03:58:12.981Z,0.00
2022-08-14T03:59:17.815Z,0.00
2022-08-14T04:00:13.957Z,0.00
2022-08-14T04:01:12.543Z,0.00
2022-08-14T04:02:32.882Z,0.00
2022-08-14T04:03:15.407Z,0.00
2022-08-14T04:04:12.440Z,0.00
2022-08-14T04:05:13.092Z,0.00
2022-08-14T04:06:12.405Z,0.00
2022-08-14T04:07:12.391Z,0.00
2022-08-14T04:08:29.883Z,0.00
2022-08-14T04:09:12.352Z,5.63
2022-08-14T04:10:12.349Z,5.63
2022-08-14T04:11:12.311Z,5.63
2022-08-14T04:12:13.483Z,5.63
2022-08-14T04:13:12.283Z,5.63
2022-08-14T04:14:12.257Z,5.63
2022-08-14T04:15:12.242Z,5.63
2022-08-14T04:16:12.758Z,11.25
2022-08-14T04:17:12.198Z,11.25
2022-08-14T04:18:12.182Z,11.25
2022-08-14T04:19:12.163Z,11.25
2022-08-14T04:20:12.141Z,11.25
2022-08-14T04:21:12.128Z,11.25
2022-08-14T04:22:12.107Z,16.88
2022-08-14T04:23:23.279Z,16.88
2022-08-14T04:24:12.098Z,16.88
2022-08-14T04:25:12.043Z,16.88
2022-08-14T04:26:14.244Z,22.50
2022-08-14T04:27:12.010Z,22.50
2022-08-14T04:29:08.530Z,22.50
2022-08-14T04:29:14.793Z,22.50
2022-08-14T04:30:11.948Z,22.50
2022-08-14T04:31:11.934Z,28.13
2022-08-14T04:33:00.755Z,28.13
2022-08-14T04:33:20.375Z,28.13
2022-08-14T04:34:20.981Z,28.13
2022-08-14T04:35:11.858Z,33.75
2022-08-14T04:36:15.744Z,33.75
2022-08-14T04:37:11.822Z,33.75
2022-08-14T04:38:37.047Z,33.75
2022-08-14T04:39:12.148Z,39.38
2022-08-14T04:40:11.799Z,39.38
2022-08-14T04:41:11.738Z,39.38
2022-08-14T04:42:12.279Z,39.38
2022-08-14T04:43:14.418Z,45.00
2022-08-14T04:44:13.361Z,45.00
2022-08-14T04:45:11.663Z,45.00
2022-08-14T04:46:11.892Z,45.00
2022-08-14T04:47:11.624Z,45.00
2022-08-14T04:48:12.538Z,50.63
2022-08-14T04:49:11.587Z,50.63
2022-08-14T04:50:11.599Z,50.63
2022-08-14T04:51:11.545Z,50.63
2022-08-14T04:52:15.521Z,50.63
2022-08-14T04:53:11.514Z,56.25
2022-08-14T04:54:11.490Z,56.25
2022-08-14T04:55:11.467Z,56.25
2022-08-14T04:56:31.286Z,56.25
2022-08-14T04:57:11.434Z,61.88
2022-08-14T04:58:21.249Z,61.88
2022-08-14T04:59:11.392Z,61.88
2022-08-14T05:00:16.108Z,61.88
2022-08-14T05:01:13.004Z,61.88
2022-08-14T05:02:11.365Z,67.50
2022-08-14T05:03:12.305Z,67.50
2022-08-14T05:04:16.022Z,73.13
2022-08-14T05:05:11.294Z,73.13
2022-08-14T05:06:37.964Z,73.13
2022-08-14T05:07:11.233Z,78.75
2022-08-14T05:08:11.219Z,78.75
2022-08-14T05:09:14.343Z,78.75
2022-08-14T05:10:13.078Z,78.75
2022-08-14T05:11:11.896Z,84.38
2022-08-14T05:13:12.657Z,84.38
2022-08-14T05:13:30.049Z,84.38
2022-08-14T05:14:17.063Z,84.38
2022-08-14T05:15:11.080Z,84.38
2022-08-14T05:16:11.060Z,90.00
2022-08-14T05:17:11.038Z,90.00
2022-08-14T05:18:17.409Z,90.00
2022-08-14T05:19:25.012Z,90.00
2022-08-14T05:21:04.333Z,90.00
2022-08-14T05:21:56.781Z,95.63
2022-08-14T05:22:16.640Z,95.63
2022-08-14T05:23:11.152Z,95.63
2022-08-14T05:24:17.818Z,95.63
2022-08-14T05:25:10.912Z,95.63
2022-08-14T05:26:10.869Z,101.25
2022-08-14T05:27:10.851Z,101.25
2022-08-14T05:28:12.453Z,101.25
2022-08-14T05:29:11.971Z,101.25
2022-08-14T05:30:10.791Z,101.25
2022-08-14T05:31:10.778Z,106.88
2022-08-14T05:32:10.759Z,106.88
2022-08-14T05:33:10.736Z,106.88
2022-08-14T05:34:10.715Z,106.88
2022-08-14T05:35:10.706Z,106.88
2022-08-14T05:36:16.673Z,106.88
2022-08-14T05:37:10.662Z,106.88
2022-08-14T05:38:11.042Z,106.88
2022-08-14T05:39:10.639Z,106.88
2022-08-14T05:40:10.613Z,106.88
2022-08-14T05:41:10.587Z,106.88
2022-08-14T05:42:21.950Z,112.50
2022-08-14T05:43:10.564Z,112.50
2022-08-14T05:44:10.531Z,112.50
2022-08-14T05:45:11.234Z,112.50
2022-08-14T05:46:10.492Z,118.13
2022-08-14T05:47:10.473Z,118.13
2022-08-14T05:48:10.458Z,118.13
2022-08-14T05:49:10.440Z,123.75
2022-08-14T05:50:17.243Z,123.75
2022-08-14T05:51:10.408Z,123.75
2022-08-14T05:52:10.388Z,123.75
2022-08-14T05:53:10.365Z,123.75
2022-08-14T05:54:17.607Z,123.75
2022-08-14T05:55:10.330Z,123.75
2022-08-14T05:56:10.313Z,140.63
2022-08-14T05:57:10.293Z,174.38
2022-08-14T05:58:10.277Z,180.00
2022-08-14T05:59:10.274Z,174.38
2022-08-14T06:00:10.239Z,151.88
2022-08-14T06:01:10.401Z,140.63
2022-08-14T06:02:11.133Z,135.00
2022-08-14T06:03:10.182Z,129.38
2022-08-14T06:04:10.168Z,129.38
2022-08-14T06:05:10.148Z,129.38
2022-08-14T06:06:10.140Z,129.38
2022-08-14T06:07:10.117Z,135.00
2022-08-14T06:08:31.319Z,135.00
2022-08-14T06:09:10.231Z,135.00
2022-08-14T06:10:10.063Z,135.00
2022-08-14T06:11:10.052Z,135.00
2022-08-14T06:12:10.041Z,135.00
2022-08-14T06:13:10.024Z,135.00
2022-08-14T06:14:21.060Z,135.00
2022-08-14T06:15:09.974Z,135.00
2022-08-14T06:16:09.957Z,135.00
2022-08-14T06:17:09.938Z,135.00
2022-08-14T06:18:09.926Z,135.00
2022-08-14T06:19:11.491Z,140.63
2022-08-14T06:20:10.325Z,140.63
2022-08-14T06:21:13.534Z,140.63
2022-08-14T06:22:09.859Z,140.63
2022-08-14T06:23:09.846Z,140.63
2022-08-14T06:24:10.435Z,140.63
2022-08-14T06:25:09.808Z,146.25
2022-08-14T06:26:09.794Z,146.25
2022-08-14T06:27:10.734Z,146.25
2022-08-14T06:28:27.347Z,146.25
2022-08-14T06:29:09.743Z,146.25
2022-08-14T06:30:10.793Z,146.25
2022-08-14T06:31:09.713Z,146.25
2022-08-14T06:32:38.818Z,146.25
2022-08-14T06:33:09.683Z,151.88
2022-08-14T06:35:03.030Z,151.88
2022-08-14T06:35:12.396Z,151.88
2022-08-14T06:36:09.634Z,151.88
2022-08-14T06:37:09.617Z,151.88
2022-08-14T06:38:12.197Z,151.88
2022-08-14T06:39:10.484Z,151.88
2022-08-14T06:40:25.758Z,151.88
2022-08-14T06:41:10.957Z,157.50
2022-08-14T06:42:09.540Z,157.50
2022-08-14T06:43:09.532Z,157.50
2022-08-14T06:44:09.752Z,157.50
2022-08-14T06:45:09.696Z,157.50
2022-08-14T06:46:22.309Z,157.50
2022-08-14T06:47:09.467Z,157.50
2022-08-14T06:48:12.743Z,157.50
2022-08-14T06:49:09.485Z,157.50
2022-08-14T06:50:09.420Z,157.50
2022-08-14T06:51:09.406Z,163.13
2022-08-14T06:52:09.393Z,163.13
2022-08-14T06:53:09.378Z,163.13
2022-08-14T06:54:09.358Z,163.13
2022-08-14T06:55:09.361Z,163.13
2022-08-14T06:56:09.332Z,163.13
2022-08-14T06:57:09.321Z,163.13
2022-08-14T06:58:24.841Z,168.75
2022-08-14T06:59:09.286Z,163.13
2022-08-14T07:00:09.272Z,168.75
2022-08-14T07:01:09.311Z,168.75
2022-08-14T07:02:13.314Z,168.75
2022-08-14T07:03:09.230Z,168.75
2022-08-14T07:04:22.810Z,168.75
2022-08-14T07:05:09.201Z,174.38
2022-08-14T07:06:21.299Z,174.38
2022-08-14T07:07:09.176Z,180.00
2022-08-14T07:08:09.170Z,185.63
2022-08-14T07:09:09.159Z,185.63
2022-08-14T07:10:16.902Z,180.00
2022-08-14T07:11:09.121Z,180.00
2022-08-14T07:12:09.101Z,180.00
2022-08-14T07:13:09.508Z,180.00
2022-08-14T07:14:09.071Z,180.00
2022-08-14T07:15:09.069Z,180.00
2022-08-14T07:16:09.042Z,185.63
2022-08-14T07:17:09.084Z,191.25
2022-08-14T07:18:09.341Z,196.88
2022-08-14T07:19:09.004Z,208.13
2022-08-14T07:20:08.986Z,219.38
2022-08-14T07:21:08.973Z,225.00
2022-08-14T07:22:17.449Z,225.00
2022-08-14T07:23:10.970Z,225.00
2022-08-14T07:24:09.511Z,225.00
2022-08-14T07:25:08.919Z,225.00
2022-08-14T07:26:10.246Z,225.00
2022-08-14T07:27:09.521Z,225.00
2022-08-14T07:28:08.891Z,225.00
2022-08-14T07:29:08.866Z,225.00
2022-08-14T07:30:09.091Z,219.38
2022-08-14T07:31:08.844Z,219.38
2022-08-14T07:32:08.830Z,219.38
2022-08-14T07:33:08.817Z,219.38
2022-08-14T07:34:08.801Z,219.38
2022-08-14T07:35:08.843Z,219.38
2022-08-14T07:36:09.025Z,219.38
2022-08-14T07:37:09.884Z,219.38
2022-08-14T07:38:08.758Z,219.38
2022-08-14T07:39:12.550Z,219.38
2022-08-14T07:40:08.769Z,219.38
2022-08-14T07:41:14.548Z,219.38
2022-08-14T07:42:08.764Z,219.38
2022-08-14T07:43:14.281Z,213.75
2022-08-14T07:44:32.513Z,219.38
2022-08-14T07:45:08.675Z,219.38
2022-08-14T07:46:08.665Z,219.38
2022-08-14T07:47:08.651Z,219.38
2022-08-14T07:48:08.642Z,219.38
2022-08-14T07:49:08.629Z,219.38
2022-08-14T07:50:08.622Z,219.38
2022-08-14T07:51:10.869Z,219.38
2022-08-14T07:52:08.608Z,219.38
2022-08-14T07:53:08.585Z,225.00
2022-08-14T07:54:11.293Z,225.00
2022-08-14T07:55:08.567Z,225.00
2022-08-14T07:56:09.181Z,225.00
2022-08-14T07:57:12.652Z,225.00
2022-08-14T07:58:21.283Z,225.00
2022-08-14T07:59:09.016Z,225.00
2022-08-14T08:00:08.520Z,225.00
2022-08-14T08:01:08.514Z,225.00
2022-08-14T08:02:08.498Z,230.63
2022-08-14T08:03:08.515Z,230.63
2022-08-14T08:04:16.563Z,230.63
2022-08-14T08:05:08.470Z,230.63
2022-08-14T08:06:10.626Z,230.63
2022-08-14T08:07:08.443Z,230.63
2022-08-14T08:08:08.505Z,230.63
2022-08-14T08:09:08.424Z,236.25
2022-08-14T08:10:08.417Z,236.25
2022-08-14T08:11:08.563Z,236.25
2022-08-14T08:12:09.148Z,236.25
2022-08-14T08:13:08.393Z,236.25
2022-08-14T08:14:16.329Z,236.25
2022-08-14T08:15:08.370Z,236.25
2022-08-14T08:16:08.368Z,241.88
2022-08-14T08:17:08.359Z,241.88
2022-08-14T08:18:08.339Z,241.88
2022-08-14T08:19:12.874Z,241.88
2022-08-14T08:20:09.002Z,241.88
2022-08-14T08:21:08.345Z,241.88
2022-08-14T08:22:08.315Z,247.50
2022-08-14T08:23:08.317Z,247.50
2022-08-14T08:24:08.328Z,247.50
2022-08-14T08:25:13.790Z,253.13
2022-08-14T08:26:08.272Z,253.13
2022-08-14T08:27:08.264Z,253.13
2022-08-14T08:28:08.768Z,253.13
2022-08-14T08:29:08.245Z,253.13
2022-08-14T08:30:10.249Z,253.13
2022-08-14T08:31:08.412Z,253.13
2022-08-14T08:32:08.229Z,253.13
2022-08-14T08:33:08.224Z,253.13
2022-08-14T08:34:14.105Z,253.13
2022-08-14T08:35:08.190Z,253.13
2022-08-14T08:36:08.238Z,253.13
2022-08-14T08:37:08.176Z,253.13
2022-08-14T08:39:14.048Z,253.13
2022-08-14T08:39:16.744Z,253.13
2022-08-14T08:40:08.236Z,253.13
2022-08-14T08:41:10.894Z,253.13
2022-08-14T08:42:08.129Z,253.13
2022-08-14T08:43:08.125Z,258.75
2022-08-14T08:44:17.538Z,258.75
2022-08-14T08:45:12.050Z,264.38
2022-08-14T08:46:08.098Z,258.75
2022-08-14T08:47:08.230Z,264.38
2022-08-14T08:48:20.615Z,258.75
2022-08-14T08:49:08.072Z,258.75
2022-08-14T08:50:22.782Z,264.38
2022-08-14T08:51:08.055Z,264.38
2022-08-14T08:52:08.051Z,264.38
2022-08-14T08:53:08.042Z,264.38
2022-08-14T08:54:10.805Z,264.38
2022-08-14T08:55:08.045Z,264.38
2022-08-14T08:56:08.019Z,264.38
2022-08-14T08:57:08.096Z,264.38
2022-08-14T08:58:16.041Z,264.38
2022-08-14T08:59:07.992Z,270.00
2022-08-14T09:00:10.053Z,270.00
2022-08-14T09:01:07.997Z,270.00
2022-08-14T09:02:10.386Z,270.00
2022-08-14T09:03:10.034Z,275.63
2022-08-14T09:04:14.671Z,275.63
2022-08-14T09:05:07.957Z,275.63
2022-08-14T09:06:53.814Z,275.63
2022-08-14T09:07:10.916Z,275.63
2022-08-14T09:08:08.219Z,281.25
2022-08-14T09:09:07.910Z,281.25
2022-08-14T09:10:08.045Z,281.25
2022-08-14T09:11:20.014Z,286.88
2022-08-14T09:12:07.885Z,286.88
2022-08-14T09:13:07.879Z,286.88
2022-08-14T09:14:07.870Z,286.88
2022-08-14T09:15:12.153Z,292.50
2022-08-14T09:16:18.993Z,292.50
2022-08-14T09:17:07.843Z,292.50
2022-08-14T09:18:07.848Z,298.13
2022-08-14T09:19:07.831Z,298.13
2022-08-14T09:20:07.820Z,298.13
2022-08-14T09:21:07.813Z,303.75
2022-08-14T09:22:34.844Z,303.75
2022-08-14T09:24:26.981Z,303.75
2022-08-14T09:25:07.862Z,309.38
2022-08-14T09:26:21.291Z,309.38
2022-08-14T09:27:07.769Z,309.38
2022-08-14T09:28:07.760Z,315.00
2022-08-14T09:29:07.751Z,315.00
2022-08-14T09:30:31.504Z,320.63
2022-08-14T09:31:18.027Z,320.63
2022-08-14T09:32:57.683Z,326.25
2022-08-14T09:33:11.624Z,331.88
2022-08-14T09:34:09.201Z,326.25
2022-08-14T09:35:08.335Z,331.88
2022-08-14T09:36:07.697Z,331.88
2022-08-14T09:37:07.685Z,337.50
2022-08-14T09:38:07.682Z,337.50
2022-08-14T09:39:11.806Z,343.13
2022-08-14T09:40:07.726Z,343.13
2022-08-14T09:41:07.665Z,343.13
2022-08-14T09:42:21.075Z,348.75
2022-08-14T09:43:07.650Z,348.75
2022-08-14T09:44:07.637Z,354.38
2022-08-14T09:45:08.965Z,354.38
2022-08-14T09:46:07.623Z,354.38
2022-08-14T09:47:07.617Z,354.38
2022-08-14T09:48:07.628Z,360.00
2022-08-14T09:49:07.600Z,365.63
2022-08-14T09:50:07.595Z,365.63
2022-08-14T09:51:32.980Z,376.88
2022-08-14T09:52:23.628Z,376.88
2022-08-14T09:53:17.802Z,382.50
2022-08-14T09:54:18.674Z,388.13
2022-08-14T09:55:07.556Z,399.38
2022-08-14T09:56:10.083Z,399.38
2022-08-14T09:57:09.023Z,410.63
2022-08-14T09:58:07.545Z,410.63
2022-08-14T09:59:07.526Z,410.63
2022-08-14T10:00:07.518Z,405.00
2022-08-14T10:01:07.511Z,410.63
2022-08-14T10:02:07.527Z,421.88
2022-08-14T10:03:07.565Z,427.50
2022-08-14T10:04:21.985Z,433.13
2022-08-14T10:05:08.806Z,444.38
2022-08-14T10:06:07.483Z,450.00
2022-08-14T10:07:08.225Z,455.63
2022-08-14T10:08:14.852Z,466.88
2022-08-14T10:09:12.064Z,472.50
2022-08-14T10:10:23.469Z,472.50
2022-08-14T10:11:07.452Z,489.38
2022-08-14T10:12:18.722Z,500.63
2022-08-14T10:13:07.429Z,523.13
2022-08-14T10:14:07.427Z,540.00
2022-08-14T10:15:07.420Z,556.88
2022-08-14T10:16:07.413Z,573.75
2022-08-14T10:17:08.367Z,579.38
2022-08-14T10:18:07.396Z,596.25
2022-08-14T10:19:09.249Z,613.13
2022-08-14T10:20:07.385Z,630.00
2022-08-14T10:21:09.707Z,646.88
2022-08-14T10:23:14.665Z,697.50
2022-08-14T10:23:15.311Z,675.00
2022-08-14T10:24:07.363Z,725.63
2022-08-14T10:25:07.355Z,759.38
2022-08-14T10:26:07.352Z,798.75
2022-08-14T10:27:07.359Z,849.38
2022-08-14T10:28:07.338Z,900.00
2022-08-14T10:29:19.605Z,950.63
2022-08-14T10:30:12.239Z,1018.13
2022-08-14T10:31:07.321Z,1091.25
2022-08-14T10:32:18.297Z,1158.75
2022-08-14T10:33:07.310Z,1215.00
2022-08-14T10:34:12.989Z,1299.38
2022-08-14T10:35:09.269Z,1378.13
2022-08-14T10:36:07.292Z,1434.38
2022-08-14T10:37:14.624Z,1507.50
2022-08-14T10:38:07.485Z,1586.25
2022-08-14T10:39:07.279Z,1591.88
2022-08-14T10:40:36.820Z,1687.50
2022-08-14T10:41:07.431Z,1777.50
2022-08-14T10:42:18.279Z,1833.75
2022-08-14T10:43:07.260Z,1867.50
2022-08-14T10:44:07.255Z,1884.38
2022-08-14T10:45:07.256Z,1918.13
2022-08-14T10:47:36.467Z,1929.38
2022-08-14T10:47:39.554Z,1963.13
2022-08-14T10:48:10.205Z,1980.00
2022-08-14T10:49:07.228Z,2030.63
2022-08-14T10:50:07.225Z,2053.13
2022-08-14T10:51:08.652Z,2041.88
2022-08-14T10:52:07.225Z,2047.50
2022-08-14T10:53:07.976Z,2047.50
2022-08-14T10:54:16.801Z,2081.25
2022-08-14T10:55:07.216Z,2092.50
2022-08-14T10:56:07.200Z,2092.50
2022-08-14T10:57:07.349Z,2092.50
2022-08-14T10:58:07.263Z,2081.25
2022-08-14T10:59:08.235Z,2075.63
2022-08-14T11:00:07.184Z,2109.38
2022-08-14T11:01:07.179Z,2086.88
2022-08-14T11:02:07.176Z,2098.13
2022-08-14T11:03:07.176Z,2137.50
2022-08-14T11:04:07.217Z,2176.88
2022-08-14T11:05:07.215Z,2154.38
2022-08-14T11:06:07.161Z,1957.50
2022-08-14T11:07:07.162Z,2148.75
2022-08-14T11:08:09.058Z,2109.38
2022-08-14T11:09:07.148Z,2115.00
2022-08-14T11:10:07.193Z,2160.00
2022-08-14T11:11:07.158Z,2188.13
2022-08-14T11:12:34.315Z,2199.38
2022-08-14T11:13:07.136Z,2238.75
2022-08-14T11:14:07.143Z,2255.63
2022-08-14T11:15:07.146Z,2250.00
2022-08-14T11:16:07.164Z,2283.75
2022-08-14T11:17:07.128Z,2300.63
2022-08-14T11:18:07.141Z,2356.88
2022-08-14T11:19:07.138Z,2379.38
2022-08-14T11:20:07.157Z,2002.50
2022-08-14T11:21:08.400Z,2385.00
2022-08-14T11:22:07.121Z,2362.50
2022-08-14T11:23:07.448Z,2385.00
2022-08-14T11:24:50.764Z,2458.13
2022-08-14T11:25:07.111Z,2480.63
2022-08-14T11:26:07.241Z,2514.38
2022-08-14T11:27:07.119Z,2514.38
2022-08-14T11:28:10.914Z,2548.13
2022-08-14T11:29:07.108Z,2604.38
2022-08-14T11:30:50.887Z,2621.25
2022-08-14T11:31:07.105Z,2660.63
2022-08-14T11:32:07.128Z,2700.00
2022-08-14T11:33:07.101Z,2745.00
2022-08-14T11:34:10.427Z,2784.38
2022-08-14T11:35:07.105Z,2801.25
2022-08-14T11:36:10.309Z,2829.38
2022-08-14T11:37:17.939Z,2812.50
2022-08-14T11:38:07.104Z,2874.38
2022-08-14T11:39:09.888Z,2891.25
2022-08-14T11:40:07.222Z,2913.75
2022-08-14T11:41:07.383Z,2902.50
2022-08-14T11:42:55.491Z,2975.63
2022-08-14T11:43:07.615Z,3015.00
2022-08-14T11:44:13.260Z,2964.38
2022-08-14T11:45:10.988Z,3020.63
2022-08-14T11:46:07.089Z,3076.88
2022-08-14T11:47:07.175Z,3065.63
2022-08-14T11:48:13.051Z,3060.00
2022-08-14T11:49:07.206Z,3110.63
2022-08-14T11:50:07.152Z,3099.38
2022-08-14T11:51:07.084Z,3121.88
2022-08-14T11:52:07.173Z,3110.63
2022-08-14T11:53:07.733Z,3138.75
2022-08-14T11:54:08.083Z,3133.13
2022-08-14T11:55:07.087Z,3200.63
2022-08-14T11:56:07.089Z,3155.63
2022-08-14T11:57:07.084Z,3071.25
2022-08-14T11:58:07.106Z,3178.13
2022-08-14T11:59:07.117Z,3240.00
2022-08-14T12:00:08.388Z,3285.00
2022-08-14T12:01:07.109Z,3363.75
2022-08-14T12:02:07.089Z,3262.50
2022-08-14T12:03:07.456Z,3245.63
2022-08-14T12:04:07.631Z,3380.63
2022-08-14T12:05:09.330Z,3453.75
2022-08-14T12:06:07.091Z,3453.75
2022-08-14T12:07:07.107Z,3476.25
2022-08-14T12:08:07.087Z,3487.50
2022-08-14T12:09:08.464Z,3470.63
2022-08-14T12:10:26.073Z,3420.00
2022-08-14T12:11:07.097Z,3453.75
2022-08-14T12:12:07.096Z,3346.88
2022-08-14T12:13:07.094Z,3346.88
2022-08-14T12:14:07.122Z,3442.50
2022-08-14T12:15:07.224Z,3459.38
2022-08-14T12:16:11.220Z,3403.13
2022-08-14T12:17:12.000Z,1676.25
2022-08-14T12:18:07.110Z,3172.50
2022-08-14T12:19:07.169Z,3605.63
2022-08-14T12:20:07.095Z,3594.38
2022-08-14T12:21:07.093Z,3515.63
2022-08-14T12:22:07.100Z,3628.13
2022-08-14T12:23:07.143Z,3628.13
2022-08-14T12:24:08.488Z,3690.00
2022-08-14T12:25:11.040Z,3684.38
2022-08-14T12:26:31.894Z,3622.50
2022-08-14T12:27:07.229Z,3571.88
2022-08-14T12:28:07.107Z,3521.25
2022-08-14T12:29:07.151Z,3560.63
2022-08-14T12:30:07.126Z,3538.13
2022-08-14T12:31:07.126Z,3481.88
2022-08-14T12:32:09.090Z,3498.75
2022-08-14T12:33:07.369Z,3538.13
2022-08-14T12:34:10.060Z,3555.00
2022-08-14T12:35:07.162Z,1715.63
2022-08-14T12:36:07.108Z,3262.50
2022-08-14T12:37:07.107Z,3571.88
2022-08-14T12:38:07.111Z,3549.38
2022-08-14T12:39:07.119Z,3538.13
2022-08-14T12:40:07.202Z,3268.13
2022-08-14T12:41:08.041Z,3487.50
2022-08-14T12:42:07.111Z,3566.25
2022-08-14T12:43:07.140Z,3526.88